createdAt,value
2017-05-11T00:07:46.864Z,0
2017-05-11T00:17:57.784Z,0
2017-05-11T00:28:08.690Z,0
2017-05-11T00:38:19.702Z,0
2017-05-11T00:48:30.543Z,0
2017-05-11T00:58:41.494Z,0
2017-05-11T01:08:52.497Z,0
2017-05-11T01:19:03.523Z,0
2017-05-11T01:29:14.666Z,0
2017-05-11T01:39:25.835Z,0
2017-05-11T01:49:36.996Z,0
2017-05-11T01:59:48.140Z,0
2017-05-11T02:09:59.348Z,0
2017-05-11T02:20:10.523Z,0
2017-05-11T02:30:21.676Z,0
2017-05-11T02:40:32.947Z,0
2017-05-11T02:50:44.192Z,0
2017-05-11T03:00:55.375Z,0
2017-05-11T03:11:06.548Z,8
2017-05-11T03:21:17.745Z,36
2017-05-11T03:31:29.024Z,112
2017-05-11T03:41:40.394Z,320
2017-05-11T03:51:51.624Z,728
2017-05-11T04:02:02.960Z,1476
2017-05-11T04:12:14.268Z,2436
2017-05-11T04:22:25.367Z,3336
2017-05-11T04:32:36.338Z,4216
2017-05-11T04:42:47.112Z,4920
2017-05-11T04:52:57.751Z,5580
2017-05-11T05:03:08.270Z,6164
2017-05-11T05:13:18.612Z,6852
2017-05-11T05:23:28.825Z,7500
2017-05-11T05:33:38.874Z,8728
2017-05-11T05:43:48.836Z,12588
2017-05-11T05:53:58.689Z,15212
2017-05-11T06:04:08.450Z,20160
2017-05-11T06:14:18.079Z,23392
2017-05-11T06:24:27.649Z,26976
2017-05-11T06:34:37.163Z,31776
2017-05-11T06:44:46.571Z,35968
2017-05-11T06:54:55.826Z,42624
2017-05-11T07:05:04.954Z,50592
2017-05-11T07:15:13.982Z,50240
2017-05-11T07:25:22.905Z,55232
2017-05-11T07:35:31.793Z,57984
2017-05-11T07:45:40.655Z,51744
2017-05-11T07:55:49.490Z,76288
2017-05-11T08:05:58.202Z,84768
2017-05-11T08:16:06.738Z,86944
2017-05-11T08:26:15.177Z,93248
2017-05-11T08:36:23.533Z,98464
2017-05-11T08:46:31.808Z,100096
2017-05-11T08:56:39.998Z,107104
2017-05-11T09:06:48.005Z,102368
2017-05-11T09:16:55.994Z,111840
2017-05-11T09:27:03.923Z,96384
2017-05-11T09:37:11.748Z,102080
2017-05-11T09:47:19.589Z,103808
2017-05-11T09:57:27.428Z,105952
2017-05-11T10:07:35.165Z,110912
2017-05-11T10:17:42.841Z,90656
2017-05-11T10:27:50.539Z,118112
2017-05-11T10:37:58.183Z,103200
2017-05-11T10:48:05.830Z,121536
2017-05-11T10:58:13.507Z,118528
2017-05-11T11:08:21.325Z,122112
2017-05-11T11:18:28.904Z,102784
2017-05-11T11:28:36.564Z,135456
2017-05-11T11:38:44.149Z,131648
2017-05-11T11:48:51.664Z,112512
2017-05-11T11:58:59.236Z,105152
2017-05-11T12:09:06.673Z,74528
2017-05-11T12:19:14.105Z,65856
2017-05-11T12:29:21.409Z,34912
2017-05-11T12:39:28.795Z,84704
2017-05-11T12:49:36.313Z,34176
2017-05-11T12:59:43.955Z,30976
2017-05-11T13:09:51.589Z,52224
2017-05-11T13:19:59.126Z,24192
2017-05-11T13:30:06.775Z,29152
2017-05-11T13:40:14.485Z,43040
2017-05-11T13:50:22.161Z,41280
2017-05-11T14:00:29.793Z,33120
2017-05-11T14:10:37.444Z,27680
2017-05-11T14:20:45.166Z,30624
2017-05-11T14:30:52.954Z,18816
2017-05-11T14:41:00.838Z,32224
2017-05-11T14:51:08.712Z,42240
2017-05-11T15:01:16.348Z,23904
2017-05-11T15:11:24.006Z,19392
2017-05-11T15:21:31.926Z,16396
2017-05-11T15:31:39.967Z,15940
2017-05-11T15:41:48.087Z,15144
2017-05-11T15:51:56.234Z,20128
2017-05-11T16:02:04.428Z,20288
2017-05-11T16:12:12.616Z,18944
2017-05-11T16:22:20.835Z,18784
2017-05-11T16:32:29.047Z,17952
2017-05-11T16:42:37.194Z,13932
2017-05-11T16:52:45.386Z,16520
2017-05-11T17:02:53.457Z,16032
2017-05-11T17:13:01.426Z,13544
2017-05-11T17:23:09.372Z,7708
2017-05-11T17:33:17.634Z,8052
2017-05-11T17:43:26.034Z,6972
2017-05-11T17:53:34.459Z,4616
2017-05-11T18:03:43.002Z,2868
2017-05-11T18:13:51.609Z,2032
2017-05-11T18:24:00.301Z,1756
2017-05-11T18:34:09.022Z,1100
2017-05-11T18:44:17.910Z,436
2017-05-11T18:54:26.951Z,188
2017-05-11T19:04:36.116Z,112
2017-05-11T19:10:29.814Z,100
2017-05-11T19:10:56.973Z,96
2017-05-11T19:12:46.357Z,88
2017-05-11T19:13:40.824Z,88
2017-05-11T19:20:01.539Z,60
2017-05-11T19:21:47.043Z,48
2017-05-11T19:22:02.878Z,44
2017-05-11T19:22:18.298Z,44
2017-05-11T19:22:49.618Z,40
2017-05-11T19:23:07.603Z,40
2017-05-11T19:23:22.195Z,40
2017-05-11T19:23:38.374Z,36
2017-05-11T19:24:43.490Z,32
2017-05-11T19:34:52.554Z,8
2017-05-11T19:45:01.662Z,4
2017-05-11T19:55:10.830Z,0
2017-05-11T20:05:19.981Z,0
2017-05-11T20:15:29.121Z,0
2017-05-11T20:25:38.306Z,0
2017-05-11T20:35:47.431Z,0
2017-05-11T20:45:56.572Z,0
2017-05-11T20:56:05.720Z,0
2017-05-11T21:06:14.953Z,0
2017-05-11T21:16:24.119Z,0
2017-05-11T21:26:33.333Z,0
2017-05-11T21:36:42.550Z,0
2017-05-11T21:46:51.779Z,0
2017-05-11T21:57:01.049Z,0
2017-05-11T22:07:10.331Z,0
2017-05-11T22:17:19.668Z,0
2017-05-11T22:27:29.058Z,0
2017-05-11T22:37:38.511Z,0
2017-05-11T22:47:47.974Z,0
2017-05-11T22:57:57.448Z,0
2017-05-11T23:08:06.902Z,0
2017-05-11T23:18:16.451Z,0
2017-05-11T23:28:26.036Z,0
2017-05-11T23:38:35.611Z,0
2017-05-11T23:48:45.195Z,0
2017-05-11T23:58:54.728Z,0
